Hauptseite
METAR-TAF:

METAR-TAF

Flughäfen :

Bohrplattform

D15-fa-1, Niederlande

Breite: 54-19-32N, Länge: 2-56-09E, Höhe: 36 m

Beobachtung

Neuester Wetterbericht von vor 29 Minuten, um 23:25 UTC
Wind 4 kt aus West, variierte zwischen Südwest und West/Nordwest
Temperatur 4°C
Luftfeuchtigkeit 70%
Luftdruck 996 hPa
Sichtweite 10 km oder mehr

METAR: EHDV 222325Z AUTO 28004KT 230V300 9999 FEW030/// SCT044/// 04/M01 Q0996 W///H///

Zeit: 00:54 (23:54 UTC)


TAF: fehlend

Wetterbeobachtungen und Prognosen von mehr als 4000 Flughäfen (METAR und TAF Bericht).

Die verfügbaren Stationen werden durch gelbe und rote Markierungen auf der Karte dargestellt.

Führen Sie die Maus auf sie, um den Namen der Station zu sehen.

Darauf klicken, um die Beobachtung von Wetterbeobachtungen und Prognosen zu sehen.

Um die Karte zu ändern : klicken Sie auf den grünen Tasten mit einem schwarzen Kreuz Zum Vergrößern, auf den grünen Button mit einem Gedankenstrich zu verkleinern, oder auf die grünen Pfeile für benachbarte Karten.


METAR-TAF: